Terminal Aerodrome Forecast
Issued by NWS

Home | Current Version | Previous Version | Text Only | Print | Product List | Glossary On
Versions: 1 2 3 4 5 6 7 8 9 10 11 12 13 14 15 16
000
FTUS43 KFGF 282300
TAFBJI
TAF
KBJI 282332Z 2900/2924 VRB06KT 3/4SM BR OVC004
     FM290100 31011KT 2SM BR OVC003
     FM290300 30015KT 5SM BR OVC007
     FM290700 31015G22KT P6SM OVC009=

USA.gov is the U.S. government's official web portal to all federal, state and local government web resources and services.